Time;durP1;ratioP1;P1;durP2;ratioP2;P2;SDS_P1;SDS_P2;PMS_P1;PMS_P2;Temp;Humidity;BMP_temperature;BMP_pressure;BME280_temperature;BME280_humidity;BME280_pressure;Samples;Min_cycle;Max_cycle;Signal;HPM_P1;HPM_P2
2023/08/13 00:01:33;;;;;;;11.02;3.58;;;;;;;-145.69;nan;51988.91;5112864;28;20229;-80
2023/08/13 00:04:04;;;;;;;6.38;3.60;;;;;;;-145.69;nan;52006.75;5113676;28;20315;-80
2023/08/13 00:06:31;;;;;;;6.65;3.90;;;;;;;-145.69;nan;52026.53;5117088;28;20284;-80
2023/08/13 00:08:57;;;;;;;10.65;3.70;;;;;;;-145.69;nan;52000.81;5116842;28;20229;-81
2023/08/13 00:11:26;;;;;;;8.90;4.28;;;;;;;-145.69;nan;52014.66;5116650;28;20204;-80
2023/08/13 00:13:54;;;;;;;6.22;3.85;;;;;;;-145.69;nan;52020.59;5116875;28;20256;-80
2023/08/13 00:16:21;;;;;;;9.07;3.83;;;;;;;-145.69;nan;52018.63;5116839;28;20559;-80
2023/08/13 00:18:47;;;;;;;5.78;3.80;;;;;;;-145.69;nan;51984.97;5116846;28;20289;-80
2023/08/13 00:21:14;;;;;;;4.72;3.83;;;;;;;-145.69;nan;51986.94;5116740;28;20233;-80
2023/08/13 00:23:40;;;;;;;6.30;4.13;;;;;;;-145.69;nan;52006.75;5116569;28;20225;-80
2023/08/13 00:26:07;;;;;;;6.43;4.13;;;;;;;-145.69;nan;51988.91;5114228;28;20280;-80
2023/08/13 00:28:33;;;;;;;7.60;4.63;;;;;;;-145.69;nan;52008.72;5096388;28;20224;-80
2023/08/13 00:31:01;;;;;;;15.13;4.13;;;;;;;-145.69;nan;52018.63;5096175;28;20628;-80
2023/08/13 00:33:28;;;;;;;11.65;4.20;;;;;;;-145.69;nan;51998.81;5114956;28;20201;-81
2023/08/13 00:35:54;;;;;;;10.70;4.55;;;;;;;-145.69;nan;52008.72;5116608;28;20571;-80
2023/08/13 00:38:21;;;;;;;8.98;4.55;;;;;;;-145.69;nan;51994.88;5116520;28;20652;-80
2023/08/13 00:40:47;;;;;;;10.82;4.45;;;;;;;-145.69;nan;52020.59;5116397;28;20296;-80
2023/08/13 00:43:14;;;;;;;10.45;4.28;;;;;;;-145.69;nan;52006.75;5116189;28;20225;-80
2023/08/13 00:45:41;;;;;;;6.90;4.10;;;;;;;-145.69;nan;52008.72;5116231;28;20197;-80
2023/08/13 00:48:10;;;;;;;7.43;4.18;;;;;;;-145.69;nan;52012.69;5115660;28;20197;-80
2023/08/13 00:50:37;;;;;;;6.15;4.75;;;;;;;-145.69;nan;52008.72;5116089;28;20244;-80
2023/08/13 00:53:05;;;;;;;9.75;4.95;;;;;;;-145.69;nan;51967.13;5116361;28;20208;-80
2023/08/13 00:55:32;;;;;;;13.75;4.80;;;;;;;-145.69;nan;52016.66;5116275;28;20246;-80
2023/08/13 00:58:01;;;;;;;6.88;4.38;;;;;;;-145.69;nan;52000.81;5114016;28;20213;-80
2023/08/13 01:00:28;;;;;;;5.60;4.22;;;;;;;-145.69;nan;52020.59;5115963;28;20233;-80
2023/08/13 01:02:54;;;;;;;7.22;4.13;;;;;;;-145.69;nan;51992.88;5115476;28;20623;-80
2023/08/13 01:05:28;;;;;;;7.43;3.88;;;;;;;-145.69;nan;51992.88;5107543;28;20244;-81
2023/08/13 01:08:03;;;;;;;6.50;4.22;;;;;;;-145.69;nan;51988.91;5105203;28;20254;-80
2023/08/13 01:10:34;;;;;;;6.22;3.70;;;;;;;-145.69;nan;52000.81;5115609;28;20199;-80
2023/08/13 01:13:09;;;;;;;7.47;4.03;;;;;;;-145.69;nan;52000.81;5115588;28;20711;-81
2023/08/13 01:15:40;;;;;;;5.63;3.78;;;;;;;-145.69;nan;52012.69;5114391;28;20212;-80
2023/08/13 01:18:08;;;;;;;7.35;4.35;;;;;;;-145.69;nan;52000.81;5115796;28;20288;-81
2023/08/13 01:20:39;;;;;;;7.65;4.38;;;;;;;-145.69;nan;51963.19;5115408;28;20193;-81
2023/08/13 01:23:07;;;;;;;8.95;4.32;;;;;;;-145.69;nan;51994.88;5095322;28;20232;-80
2023/08/13 01:25:37;;;;;;;6.70;4.35;;;;;;;-145.69;nan;51996.84;5133147;27;20253;-81
2023/08/13 01:28:18;;;;;;;4.72;3.70;;;;;;;-145.69;nan;52000.81;5106916;27;20281;-80
2023/08/13 01:30:47;;;;;;;8.00;4.40;;;;;;;-145.69;nan;51994.88;5095648;28;20206;-81
2023/08/13 01:33:26;;;;;;;11.35;4.45;;;;;;;-145.69;nan;51977.03;5113927;28;20537;-81
2023/08/13 01:35:54;;;;;;;8.65;4.10;;;;;;;-145.69;nan;52008.72;5115719;28;20685;-82
2023/08/13 01:38:22;;;;;;;7.60;4.18;;;;;;;-145.69;nan;51975.06;5115307;28;20232;-81
2023/08/13 01:40:49;;;;;;;5.53;3.85;;;;;;;-145.69;nan;52020.59;5115023;28;20193;-80
2023/08/13 01:43:16;;;;;;;5.68;3.88;;;;;;;-145.69;nan;52010.69;5114924;28;20715;-80
2023/08/13 01:45:45;;;;;;;10.45;4.00;;;;;;;-145.69;nan;52008.72;5115408;28;20208;-80
2023/08/13 01:48:12;;;;;;;9.88;4.15;;;;;;;-145.69;nan;52000.81;5115141;28;20201;-81
2023/08/13 01:50:39;;;;;;;5.45;3.85;;;;;;;-145.69;nan;51994.88;5115114;28;20211;-80
2023/08/13 01:53:06;;;;;;;7.53;4.22;;;;;;;-145.69;nan;52040.41;5115056;28;20270;-81
2023/08/13 01:55:36;;;;;;;7.75;4.65;;;;;;;-145.69;nan;52008.72;5114371;28;20216;-81
2023/08/13 01:58:03;;;;;;;8.40;4.53;;;;;;;-145.69;nan;51996.84;5115044;28;20205;-81
2023/08/13 02:00:30;;;;;;;7.55;4.40;;;;;;;-145.69;nan;52002.78;5114994;28;20193;-81
2023/08/13 02:03:01;;;;;;;9.65;4.53;;;;;;;-145.69;nan;52008.72;5114240;28;20718;-82
2023/08/13 02:05:27;;;;;;;10.68;4.80;;;;;;;-145.69;nan;52028.53;5114793;28;20258;-81
2023/08/13 02:08:00;;;;;;;5.75;4.13;;;;;;;-145.69;nan;51996.84;5114995;28;20201;-81
2023/08/13 02:10:26;;;;;;;11.20;4.60;;;;;;;-145.69;nan;52046.34;5114525;28;20190;-81
2023/08/13 02:13:00;;;;;;;8.90;4.90;;;;;;;-145.69;nan;52002.78;5113980;28;20675;-80
2023/08/13 02:15:26;;;;;;;6.88;4.63;;;;;;;-145.69;nan;51996.84;5114525;28;20292;-81
2023/08/13 02:17:57;;;;;;;7.43;4.30;;;;;;;-145.69;nan;52006.75;5114556;28;20220;-81
2023/08/13 02:20:24;;;;;;;7.90;4.50;;;;;;;-145.69;nan;52010.69;5094239;28;20205;-81
2023/08/13 02:22:54;;;;;;;11.55;5.03;;;;;;;-145.69;nan;52016.66;5094218;28;20230;-80
2023/08/13 02:25:21;;;;;;;7.97;4.50;;;;;;;-145.69;nan;52008.72;5100351;28;20190;-81
2023/08/13 02:27:47;;;;;;;12.40;4.78;;;;;;;-145.69;nan;52020.59;5114273;28;20205;-81
2023/08/13 02:30:18;;;;;;;5.07;4.07;;;;;;;-145.69;nan;52000.81;5114401;28;20240;-80
2023/08/13 02:32:44;;;;;;;9.68;4.90;;;;;;;-145.69;nan;52000.81;5114308;28;20244;-79
2023/08/13 02:35:11;;;;;;;10.68;4.80;;;;;;;-145.69;nan;52004.75;5112537;28;20551;-79
2023/08/13 02:37:37;;;;;;;9.13;4.45;;;;;;;-145.69;nan;51984.97;5113437;28;20202;-80
2023/08/13 02:40:06;;;;;;;8.55;4.70;;;;;;;-145.69;nan;52004.75;5113852;28;20225;-80
2023/08/13 02:42:32;;;;;;;8.70;4.28;;;;;;;-145.69;nan;52004.75;5113833;28;20211;-80
2023/08/13 02:44:59;;;;;;;10.07;4.80;;;;;;;-145.69;nan;52052.28;5113920;28;20256;-80
2023/08/13 02:47:27;;;;;;;11.98;4.57;;;;;;;-145.69;nan;51977.03;5113838;28;20201;-80
2023/08/13 02:49:53;;;;;;;8.77;4.50;;;;;;;-145.69;nan;51979.03;5113656;28;20246;-80
2023/08/13 02:52:20;;;;;;;9.63;4.60;;;;;;;-145.69;nan;52020.59;5113806;28;20648;-81
2023/08/13 02:54:46;;;;;;;8.85;4.13;;;;;;;-145.69;nan;52010.69;5113713;28;20223;-81
2023/08/13 02:57:13;;;;;;;6.18;3.63;;;;;;;-145.69;nan;52008.72;5110887;28;20623;-81
2023/08/13 02:59:40;;;;;;;12.05;4.15;;;;;;;-145.69;nan;51992.88;5113653;28;20228;-81
2023/08/13 03:02:06;;;;;;;7.93;4.30;;;;;;;-145.69;nan;52016.66;5113534;28;20643;-81
2023/08/13 03:04:34;;;;;;;10.45;4.00;;;;;;;-145.69;nan;51982.97;5113930;28;20228;-80
2023/08/13 03:07:03;;;;;;;10.60;4.20;;;;;;;-145.69;nan;52020.59;5113980;28;20197;-80
2023/08/13 03:09:29;;;;;;;11.95;4.78;;;;;;;-145.69;nan;51988.91;5113785;28;20305;-79
2023/08/13 03:11:58;;;;;;;7.93;3.92;;;;;;;-145.69;nan;52008.72;5113422;28;20201;-80
2023/08/13 03:14:25;;;;;;;7.93;4.22;;;;;;;-145.69;nan;51988.91;5113392;28;20813;-80
2023/08/13 03:16:52;;;;;;;7.63;3.70;;;;;;;-145.69;nan;52008.72;5113472;28;20648;-80
2023/08/13 03:19:18;;;;;;;7.07;3.70;;;;;;;-145.69;nan;51988.91;5113124;28;20194;-80
2023/08/13 03:21:46;;;;;;;8.93;4.00;;;;;;;-145.69;nan;51982.97;5114468;28;20719;-83
2023/08/13 03:24:13;;;;;;;9.95;3.58;;;;;;;-145.69;nan;51988.91;5117002;28;20691;-83
2023/08/13 03:26:39;;;;;;;8.02;4.10;;;;;;;-145.69;nan;52032.47;5114665;28;20648;-82
2023/08/13 03:29:06;;;;;;;6.32;3.38;;;;;;;-145.69;nan;52004.75;5113160;28;20579;-83
2023/08/13 03:31:33;;;;;;;8.63;3.70;;;;;;;-145.69;nan;51982.97;5116926;28;20628;-83
2023/08/13 03:33:59;;;;;;;8.20;4.10;;;;;;;-145.69;nan;51990.91;5113608;28;20201;-83
2023/08/13 03:36:28;;;;;;;11.45;4.63;;;;;;;-145.69;nan;51996.84;5113769;28;20292;-83
2023/08/13 03:38:56;;;;;;;8.25;4.10;;;;;;;-145.69;nan;51988.91;5116153;28;20268;-83
2023/08/13 03:41:23;;;;;;;6.75;4.20;;;;;;;-145.69;nan;51988.91;5113574;28;20560;-82
2023/08/13 03:43:49;;;;;;;8.50;4.03;;;;;;;-145.69;nan;52008.72;5113650;28;20305;-83
2023/08/13 03:46:16;;;;;;;11.48;4.97;;;;;;;-145.69;nan;51998.81;5113941;28;20644;-84
2023/08/13 03:48:45;;;;;;;8.05;4.05;;;;;;;-145.69;nan;52012.69;5113634;28;20201;-83
2023/08/13 03:51:11;;;;;;;8.52;4.25;;;;;;;-145.69;nan;52008.72;5113136;28;20273;-82
2023/08/13 03:53:38;;;;;;;8.48;4.15;;;;;;;-145.69;nan;52002.78;5113319;28;20198;-82
2023/08/13 03:56:07;;;;;;;13.48;4.45;;;;;;;-145.69;nan;52006.75;5113327;28;20233;-82
2023/08/13 03:58:35;;;;;;;6.03;3.85;;;;;;;-145.69;nan;52012.69;5113364;28;20204;-82
2023/08/13 04:01:07;;;;;;;6.78;4.18;;;;;;;-145.69;nan;52012.69;5113628;28;20197;-82
2023/08/13 04:03:36;;;;;;;8.60;4.47;;;;;;;-145.69;nan;51998.81;5113209;28;20224;-83
2023/08/13 04:06:06;;;;;;;6.05;4.00;;;;;;;-145.69;nan;51988.91;5113408;28;20644;-82
2023/08/13 04:08:34;;;;;;;10.52;4.57;;;;;;;-145.69;nan;52018.63;5112995;28;20230;-81
2023/08/13 04:11:00;;;;;;;6.30;4.13;;;;;;;-145.69;nan;52012.69;5113232;28;20644;-82
2023/08/13 04:13:28;;;;;;;10.23;4.70;;;;;;;-145.69;nan;52022.59;5112495;28;20225;-82
2023/08/13 04:15:58;;;;;;;7.28;4.00;;;;;;;-145.69;nan;52006.75;5112895;28;20202;-82
2023/08/13 04:18:24;;;;;;;8.25;4.70;;;;;;;-145.69;nan;51981.00;5113176;28;20203;-83
2023/08/13 04:20:51;;;;;;;8.07;4.10;;;;;;;-145.69;nan;52004.75;5112983;28;20631;-83
2023/08/13 04:23:18;;;;;;;9.57;4.32;;;;;;;-145.69;nan;52020.59;5113244;28;20660;-81
2023/08/13 04:25:46;;;;;;;6.07;4.00;;;;;;;-145.69;nan;52008.72;5113142;28;20200;-82
2023/08/13 04:28:13;;;;;;;9.38;3.97;;;;;;;-145.69;nan;52032.47;5112927;28;20208;-82
2023/08/13 04:30:45;;;;;;;6.18;4.43;;;;;;;-145.69;nan;52028.53;5112112;28;20288;-83
2023/08/13 04:33:11;;;;;;;6.30;4.18;;;;;;;-145.69;nan;52020.59;5110626;28;20205;-82
2023/08/13 04:35:41;;;;;;;10.77;4.78;;;;;;;-145.69;nan;51969.13;5111890;28;20640;-82
2023/08/13 04:38:07;;;;;;;11.25;5.30;;;;;;;-145.69;nan;51990.91;5112622;28;20190;-83
2023/08/13 04:40:34;;;;;;;7.97;4.53;;;;;;;-145.69;nan;52010.69;5112824;28;20258;-82
2023/08/13 04:43:01;;;;;;;8.20;4.32;;;;;;;-145.69;nan;52028.53;5112977;28;20202;-82
2023/08/13 04:45:27;;;;;;;8.90;4.13;;;;;;;-145.69;nan;52036.44;5094470;28;20238;-80
2023/08/13 04:47:55;;;;;;;7.68;4.25;;;;;;;-145.69;nan;52036.44;5111255;28;20280;-82
2023/08/13 04:50:22;;;;;;;7.65;4.45;;;;;;;-145.69;nan;52004.75;5102425;28;20206;-83
2023/08/13 04:52:48;;;;;;;8.35;4.75;;;;;;;-145.69;nan;52006.75;5096013;28;20204;-82
2023/08/13 04:55:15;;;;;;;6.40;4.07;;;;;;;-145.69;nan;52000.81;5095969;28;20576;-83
2023/08/13 04:57:44;;;;;;;9.93;4.40;;;;;;;-145.69;nan;52020.59;5111228;28;20656;-82
2023/08/13 05:00:16;;;;;;;8.90;4.75;;;;;;;-145.69;nan;51998.81;5116079;28;20228;-81
2023/08/13 05:02:43;;;;;;;10.00;4.68;;;;;;;-145.69;nan;52002.78;5115908;28;20197;-82
2023/08/13 05:05:11;;;;;;;9.48;4.57;;;;;;;-145.69;nan;52016.66;5115663;28;20298;-83
2023/08/13 05:07:37;;;;;;;8.70;4.20;;;;;;;-145.69;nan;51992.88;5116189;28;20229;-83
2023/08/13 05:10:05;;;;;;;5.40;3.60;;;;;;;-145.69;nan;52012.69;5115812;28;20197;-82
2023/08/13 05:12:34;;;;;;;6.35;4.35;;;;;;;-145.69;nan;51955.25;5115674;28;20201;-82
2023/08/13 05:15:01;;;;;;;5.82;4.15;;;;;;;-145.69;nan;51998.81;5115352;28;20320;-82
2023/08/13 05:17:27;;;;;;;9.98;4.38;;;;;;;-145.69;nan;51988.91;5115849;28;20284;-82
2023/08/13 05:19:54;;;;;;;5.00;3.90;;;;;;;-145.69;nan;51988.91;5115707;28;20197;-83
2023/08/13 05:22:22;;;;;;;8.15;4.60;;;;;;;-145.69;nan;51988.91;5115888;28;20596;-82
2023/08/13 05:24:48;;;;;;;6.22;4.20;;;;;;;-145.69;nan;51996.84;5115405;28;20217;-82
2023/08/13 05:27:17;;;;;;;7.50;4.20;;;;;;;-145.69;nan;51994.88;5115618;28;20198;-81
2023/08/13 05:29:43;;;;;;;7.93;4.55;;;;;;;-145.69;nan;51965.16;5115539;28;20232;-82
2023/08/13 05:32:10;;;;;;;5.15;3.95;;;;;;;-145.69;nan;51984.97;5115706;28;20205;-82
2023/08/13 05:34:36;;;;;;;11.38;4.60;;;;;;;-145.69;nan;52016.66;5115884;27;20190;-82
2023/08/13 05:37:03;;;;;;;8.70;4.95;;;;;;;-145.69;nan;51981.00;5116372;27;20225;-81
2023/08/13 05:39:33;;;;;;;7.85;4.78;;;;;;;-145.69;nan;51963.19;5115275;28;20193;-82
2023/08/13 05:42:00;;;;;;;7.70;4.78;;;;;;;-145.69;nan;51981.00;5115359;28;20193;-82
2023/08/13 05:44:27;;;;;;;8.50;4.47;;;;;;;-145.69;nan;52024.56;5115388;28;20653;-83
2023/08/13 05:46:55;;;;;;;8.95;4.38;;;;;;;-145.69;nan;52006.75;5115690;28;20318;-83
2023/08/13 05:49:21;;;;;;;8.55;4.47;;;;;;;-145.69;nan;52004.75;5115215;28;20622;-83
2023/08/13 05:51:48;;;;;;;5.22;3.83;;;;;;;-145.69;nan;51984.97;5115525;28;20194;-83
2023/08/13 05:54:15;;;;;;;9.02;3.97;;;;;;;-145.69;nan;51967.13;5115521;28;20225;-83
2023/08/13 05:56:43;;;;;;;6.03;4.25;;;;;;;-145.69;nan;52004.75;5115094;28;20280;-82
2023/08/13 05:59:09;;;;;;;6.75;4.35;;;;;;;-145.69;nan;51981.00;5114627;28;20198;-81
2023/08/13 06:01:36;;;;;;;7.00;3.75;;;;;;;-145.69;nan;51975.06;5114642;28;20201;-82
2023/08/13 06:04:02;;;;;;;5.57;3.97;;;;;;;-145.69;nan;51988.91;5114748;28;20236;-82
2023/08/13 06:06:29;;;;;;;5.30;3.90;;;;;;;-145.69;nan;52012.69;5114775;28;20201;-82
2023/08/13 06:08:55;;;;;;;7.10;3.92;;;;;;;-145.69;nan;51971.09;5114983;28;20197;-83
2023/08/13 06:11:22;;;;;;;7.53;4.05;;;;;;;-145.69;nan;51992.88;5114867;28;20208;-83
2023/08/13 06:13:51;;;;;;;4.63;3.35;;;;;;;-145.69;nan;51998.81;5113709;28;20225;-83
2023/08/13 06:16:17;;;;;;;5.78;3.83;;;;;;;-145.69;nan;51969.13;5114717;28;20552;-83
2023/08/13 06:18:44;;;;;;;5.22;3.72;;;;;;;-145.69;nan;51984.97;5114349;28;20198;-83
2023/08/13 06:21:10;;;;;;;8.27;4.30;;;;;;;-145.69;nan;51982.97;5114863;28;20194;-84
2023/08/13 06:23:37;;;;;;;7.28;3.80;;;;;;;-145.69;nan;51957.25;5115158;28;20204;-84
2023/08/13 06:26:03;;;;;;;5.63;3.47;;;;;;;-145.69;nan;51951.28;5114599;28;20221;-83
2023/08/13 06:28:30;;;;;;;5.75;3.15;;;;;;;-145.69;nan;51957.25;5114688;28;20201;-84
2023/08/13 06:30:58;;;;;;;4.35;2.85;;;;;;;-145.69;nan;51957.25;5114303;28;20190;-83
2023/08/13 06:33:24;;;;;;;4.85;2.92;;;;;;;-145.69;nan;51931.50;5114293;28;20197;-84
2023/08/13 06:35:51;;;;;;;5.78;3.00;;;;;;;-145.69;nan;51937.44;5094147;28;20296;-84
2023/08/13 06:38:18;;;;;;;4.85;2.88;;;;;;;-145.69;nan;51933.47;5102613;28;20201;-84
2023/08/13 06:40:45;;;;;;;5.18;3.25;;;;;;;-145.69;nan;51941.41;5112383;28;20205;-83
2023/08/13 06:43:12;;;;;;;5.53;3.30;;;;;;;-145.69;nan;51961.19;5111305;28;20209;-83
2023/08/13 06:45:39;;;;;;;7.05;3.15;;;;;;;-145.69;nan;51939.41;5113184;28;20221;-83
2023/08/13 06:48:07;;;;;;;5.28;2.88;;;;;;;-145.69;nan;51943.38;5113980;28;20190;-83
2023/08/13 06:50:34;;;;;;;6.10;3.10;;;;;;;-145.69;nan;51931.50;5114045;28;20224;-83
2023/08/13 06:53:01;;;;;;;4.82;2.95;;;;;;;-145.69;nan;51915.66;5113985;28;20197;-83
2023/08/13 06:55:27;;;;;;;7.70;3.20;;;;;;;-145.69;nan;51967.13;5114170;28;20644;-84
2023/08/13 06:57:54;;;;;;;5.40;2.70;;;;;;;-145.69;nan;51921.59;5114357;28;20208;-84
2023/08/13 07:00:21;;;;;;;4.70;2.63;;;;;;;-145.69;nan;51941.41;5113950;28;20196;-84
2023/08/13 07:02:48;;;;;;;7.38;3.20;;;;;;;-145.69;nan;51933.47;5113514;28;20569;-83
2023/08/13 07:05:17;;;;;;;6.25;3.30;;;;;;;-145.69;nan;51913.69;5114024;28;20263;-84
2023/08/13 07:07:43;;;;;;;3.97;2.72;;;;;;;-145.69;nan;51921.59;5113736;28;20204;-87
2023/08/13 07:10:10;;;;;;;4.88;3.05;;;;;;;-145.69;nan;51891.88;5114883;28;20202;-86
2023/08/13 07:12:37;;;;;;;4.88;2.65;;;;;;;-145.69;nan;51933.47;5114757;28;20672;-85
2023/08/13 07:15:04;;;;;;;6.53;3.17;;;;;;;-145.69;nan;51909.72;5113111;28;20225;-84
2023/08/13 07:17:31;;;;;;;6.60;3.00;;;;;;;-145.69;nan;51895.84;5113790;28;20280;-84
2023/08/13 07:19:57;;;;;;;5.20;2.70;;;;;;;-145.69;nan;51895.84;5113842;28;20240;-83
2023/08/13 07:22:26;;;;;;;6.72;2.90;;;;;;;-145.69;nan;51925.56;5113515;28;20201;-83
2023/08/13 07:24:52;;;;;;;5.85;2.80;;;;;;;-145.69;nan;51899.81;5113701;28;20225;-84
2023/08/13 07:27:19;;;;;;;5.63;2.67;;;;;;;-145.69;nan;51907.72;5113697;28;20197;-83
2023/08/13 07:29:46;;;;;;;5.03;2.40;;;;;;;-145.69;nan;51905.75;5113459;28;20667;-84
2023/08/13 07:32:12;;;;;;;3.83;2.40;;;;;;;-145.69;nan;51897.84;5113511;28;20279;-83
2023/08/13 07:34:39;;;;;;;5.70;2.75;;;;;;;-145.69;nan;51870.13;5113494;28;20564;-83
2023/08/13 07:37:06;;;;;;;6.40;2.78;;;;;;;-145.69;nan;51901.78;5120822;27;20601;-84
2023/08/13 07:39:34;;;;;;;3.97;2.80;;;;;;;-145.69;nan;51846.34;5133961;28;20283;-83
2023/08/13 07:42:00;;;;;;;7.47;2.88;;;;;;;-145.69;nan;51852.28;5117242;28;20287;-83
2023/08/13 07:44:27;;;;;;;5.22;2.70;;;;;;;-145.69;nan;51901.78;5112868;28;20201;-84
2023/08/13 07:46:56;;;;;;;6.45;2.78;;;;;;;-145.69;nan;51897.84;5113422;28;20198;-83
2023/08/13 07:49:22;;;;;;;7.85;3.20;;;;;;;-145.69;nan;51874.06;5113336;28;20703;-84
2023/08/13 07:51:49;;;;;;;4.50;2.90;;;;;;;-145.69;nan;51882.00;5113651;28;20203;-83
2023/08/13 07:54:15;;;;;;;3.97;2.45;;;;;;;-145.69;nan;51864.16;5113558;28;20193;-83
2023/08/13 07:56:43;;;;;;;5.55;3.22;;;;;;;-145.69;nan;51862.19;5113397;28;20198;-83
2023/08/13 07:59:10;;;;;;;5.30;2.83;;;;;;;-145.69;nan;51856.25;5113254;28;20205;-83
2023/08/13 08:01:37;;;;;;;5.78;2.83;;;;;;;-145.69;nan;51870.13;5112768;28;20204;-84
2023/08/13 08:04:04;;;;;;;5.85;3.05;;;;;;;-145.69;nan;51878.03;5112971;28;20213;-83
2023/08/13 08:06:30;;;;;;;6.28;2.75;;;;;;;-145.69;nan;51846.34;5113046;28;20227;-82
2023/08/13 08:08:57;;;;;;;5.07;2.63;;;;;;;-145.69;nan;51872.09;5113225;28;20201;-83
2023/08/13 08:11:24;;;;;;;6.75;2.50;;;;;;;-145.69;nan;51883.97;5113376;28;20193;-83
2023/08/13 08:13:51;;;;;;;7.63;2.85;;;;;;;-145.69;nan;51862.19;5112713;28;20230;-83
2023/08/13 08:16:18;;;;;;;6.75;2.97;;;;;;;-145.69;nan;51882.00;5112723;28;20202;-83
2023/08/13 08:18:44;;;;;;;4.60;2.97;;;;;;;-145.69;nan;51903.78;5112862;28;20197;-83
2023/08/13 08:21:11;;;;;;;5.10;2.50;;;;;;;-145.69;nan;51882.00;5112563;28;20657;-81
2023/08/13 08:23:37;;;;;;;5.07;2.30;;;;;;;-145.69;nan;51866.16;5112815;28;20197;-82
2023/08/13 08:26:04;;;;;;;6.15;2.53;;;;;;;-145.69;nan;51889.91;5115538;28;20225;-83
2023/08/13 08:28:31;;;;;;;5.53;2.85;;;;;;;-145.69;nan;51882.00;5116944;28;20644;-83
2023/08/13 08:30:58;;;;;;;5.47;2.83;;;;;;;-145.69;nan;51856.25;5116874;28;20205;-83
2023/08/13 08:33:26;;;;;;;7.10;2.70;;;;;;;-145.69;nan;51878.03;5116634;28;20204;-83
2023/08/13 08:35:52;;;;;;;10.15;3.20;;;;;;;-145.69;nan;51854.28;5117037;28;20201;-82
2023/08/13 08:38:19;;;;;;;7.20;2.58;;;;;;;-145.69;nan;51878.03;5116645;28;20659;-83
2023/08/13 08:40:47;;;;;;;4.00;2.42;;;;;;;-145.69;nan;51850.31;5116954;28;20233;-83
2023/08/13 08:43:14;;;;;;;6.82;2.42;;;;;;;-145.69;nan;51850.31;5116549;28;20198;-83
2023/08/13 08:45:41;;;;;;;4.85;2.42;;;;;;;-145.69;nan;51854.28;5115971;28;20221;-83
2023/08/13 08:48:11;;;;;;;7.97;2.55;;;;;;;-145.69;nan;51864.16;5108686;28;20193;-82
2023/08/13 08:50:38;;;;;;;5.57;2.33;;;;;;;-145.69;nan;51834.47;5095985;28;20560;-83
2023/08/13 08:53:05;;;;;;;6.32;2.88;;;;;;;-145.69;nan;51824.56;5098740;28;20208;-84
2023/08/13 08:55:32;;;;;;;4.32;2.58;;;;;;;-145.69;nan;51830.50;5116401;28;20197;-85
2023/08/13 08:57:58;;;;;;;5.07;2.28;;;;;;;-145.69;nan;51810.72;5097813;28;20198;-84
2023/08/13 09:00:25;;;;;;;5.18;2.50;;;;;;;-145.69;nan;51779.03;5116343;28;20201;-84
2023/08/13 09:02:51;;;;;;;5.05;2.35;;;;;;;-145.69;nan;51808.72;5116322;28;20201;-81
2023/08/13 09:05:20;;;;;;;5.28;2.63;;;;;;;-145.69;nan;51790.91;5115679;28;20300;-87
2023/08/13 09:07:47;;;;;;;5.13;2.45;;;;;;;-145.69;nan;51826.56;5116215;28;20201;-82
2023/08/13 09:10:13;;;;;;;5.65;2.83;;;;;;;-145.69;nan;51826.56;5115793;28;20201;-86
2023/08/13 09:12:42;;;;;;;5.00;3.20;;;;;;;-145.69;nan;51786.94;5115901;28;20186;-84
2023/08/13 09:15:10;;;;;;;7.93;3.17;;;;;;;-145.69;nan;51828.53;5115626;28;20260;-82
2023/08/13 09:17:37;;;;;;;3.85;2.70;;;;;;;-145.69;nan;51818.63;5116020;28;20205;-83
2023/08/13 09:20:10;;;;;;;4.13;2.70;;;;;;;-145.69;nan;51820.59;5116162;28;20198;-84
2023/08/13 09:22:38;;;;;;;5.20;3.00;;;;;;;-145.69;nan;51826.56;5116572;28;20197;-84
2023/08/13 09:25:05;;;;;;;5.32;2.88;;;;;;;-145.69;nan;51810.72;5116555;28;20203;-83
2023/08/13 09:27:32;;;;;;;6.75;2.80;;;;;;;-145.69;nan;51838.44;5116632;28;20208;-83
2023/08/13 09:29:59;;;;;;;5.15;3.08;;;;;;;-145.69;nan;51846.34;5116404;28;20193;-83
2023/08/13 09:32:28;;;;;;;5.30;3.00;;;;;;;-145.69;nan;51822.59;5115765;28;20258;-84
2023/08/13 09:34:54;;;;;;;5.90;3.17;;;;;;;-145.69;nan;51838.44;5114293;28;20453;-82
2023/08/13 09:37:23;;;;;;;7.60;3.17;;;;;;;-145.69;nan;51828.53;5114687;28;20284;-82
2023/08/13 09:39:51;;;;;;;4.15;2.97;;;;;;;-145.69;nan;51794.88;5115214;28;20292;-83
2023/08/13 09:42:19;;;;;;;4.70;3.08;;;;;;;-145.69;nan;51810.72;5125435;27;20231;-83
2023/08/13 09:44:48;;;;;;;5.57;3.28;;;;;;;-145.69;nan;51810.72;5134443;27;20208;-83
2023/08/13 09:47:20;;;;;;;4.88;3.17;;;;;;;-145.69;nan;51826.56;5115386;28;20231;-83
2023/08/13 09:49:47;;;;;;;7.53;3.28;;;;;;;-145.69;nan;51806.75;5115494;28;20201;-83
2023/08/13 09:52:16;;;;;;;5.75;2.60;;;;;;;-145.69;nan;51818.63;5114813;28;20204;-84
2023/08/13 09:54:47;;;;;;;7.75;3.10;;;;;;;-145.69;nan;51792.88;5115536;28;20193;-83
2023/08/13 09:57:18;;;;;;;4.45;2.80;;;;;;;-145.69;nan;51828.53;5115171;28;20208;-84
2023/08/13 09:59:45;;;;;;;7.53;2.80;;;;;;;-145.69;nan;51818.63;5115612;28;20198;-83
2023/08/13 10:02:14;;;;;;;6.15;3.20;;;;;;;-145.69;nan;51836.44;5115025;28;20212;-81
2023/08/13 10:04:41;;;;;;;5.45;3.03;;;;;;;-145.69;nan;51822.59;5114653;28;20198;-81
2023/08/13 10:07:09;;;;;;;4.38;2.78;;;;;;;-145.69;nan;51822.59;5114747;28;20233;-82
2023/08/13 10:09:36;;;;;;;9.88;3.20;;;;;;;-145.69;nan;51808.72;5115019;28;20204;-83
2023/08/13 10:12:05;;;;;;;10.02;3.03;;;;;;;-145.69;nan;51802.78;5114098;28;20221;-81
2023/08/13 10:14:33;;;;;;;5.35;3.22;;;;;;;-145.69;nan;51818.63;5114108;28;20226;-84
2023/08/13 10:17:01;;;;;;;5.15;2.83;;;;;;;-145.69;nan;51840.41;5114644;28;20292;-82
2023/08/13 10:19:29;;;;;;;5.80;3.20;;;;;;;-145.69;nan;51786.94;5114587;28;20201;-81
2023/08/13 10:21:56;;;;;;;6.72;3.08;;;;;;;-145.69;nan;51779.03;5114489;28;20197;-80
2023/08/13 10:24:23;;;;;;;3.55;2.60;;;;;;;-145.69;nan;51779.03;5114666;28;20201;-83
2023/08/13 10:26:50;;;;;;;6.75;2.80;;;;;;;-145.69;nan;51741.41;5114358;28;20225;-82
2023/08/13 10:29:17;;;;;;;4.93;2.35;;;;;;;-145.69;nan;51739.44;5114478;28;20201;-82
2023/08/13 10:31:54;;;;;;;4.90;2.88;;;;;;;-145.69;nan;51707.75;5114004;28;20203;-83
2023/08/13 10:34:38;;;;;;;5.43;2.80;;;;;;;-145.69;nan;51701.81;5114126;28;20280;-82
2023/08/13 10:37:13;;;;;;;3.80;2.60;;;;;;;-145.69;nan;51723.59;5114542;28;20201;-83
2023/08/13 10:39:40;;;;;;;4.45;2.75;;;;;;;-145.69;nan;51743.38;5114201;28;20292;-83
2023/08/13 10:42:40;;;;;;;5.30;2.80;;;;;;;-145.69;nan;51743.38;5113979;28;20205;-84
2023/08/13 10:45:08;;;;;;;5.40;2.83;;;;;;;-145.69;nan;51723.59;5113975;28;20204;-82
2023/08/13 10:47:40;;;;;;;4.55;2.60;;;;;;;-145.69;nan;51699.81;5113988;28;20217;-82
2023/08/13 10:50:07;;;;;;;4.85;2.53;;;;;;;-145.69;nan;51739.44;5114168;28;20575;-83
2023/08/13 10:52:34;;;;;;;4.90;2.50;;;;;;;-145.69;nan;51711.72;5111836;28;20200;-82
2023/08/13 10:55:01;;;;;;;4.20;2.30;;;;;;;-145.69;nan;51745.38;5110574;28;20199;-81
2023/08/13 10:57:28;;;;;;;4.25;2.33;;;;;;;-145.69;nan;51735.47;5113726;28;20201;-83
2023/08/13 10:59:57;;;;;;;4.57;2.70;;;;;;;-145.69;nan;51739.44;5113762;28;20201;-80
2023/08/13 11:02:24;;;;;;;4.38;2.50;;;;;;;-145.69;nan;51737.44;5113696;28;20209;-81
2023/08/13 11:04:55;;;;;;;4.53;2.30;;;;;;;-145.69;nan;51735.47;5113740;28;20217;-80
2023/08/13 11:07:22;;;;;;;4.88;2.65;;;;;;;-145.69;nan;51703.78;5113626;28;20710;-82
2023/08/13 11:09:49;;;;;;;4.05;2.40;;;;;;;-145.69;nan;51707.75;5113295;28;20198;-82
2023/08/13 11:12:16;;;;;;;6.28;2.92;;;;;;;-145.69;nan;51725.56;5113551;28;20213;-81
2023/08/13 11:14:43;;;;;;;4.85;2.30;;;;;;;-145.69;nan;51703.78;5113638;28;20230;-81
2023/08/13 11:17:09;;;;;;;3.63;2.50;;;;;;;-145.69;nan;51695.88;5113629;28;20275;-82
2023/08/13 11:19:37;;;;;;;4.53;2.70;;;;;;;-145.69;nan;51743.38;5113658;28;20284;-82
2023/08/13 11:22:05;;;;;;;4.05;2.50;;;;;;;-145.69;nan;51717.66;5113185;28;20204;-83
2023/08/13 11:24:32;;;;;;;8.55;2.88;;;;;;;-145.69;nan;51751.31;5113699;28;20201;-83
2023/08/13 11:26:59;;;;;;;4.40;2.30;;;;;;;-145.69;nan;51784.97;5113304;28;20691;-81
2023/08/13 11:29:25;;;;;;;5.13;2.67;;;;;;;-145.69;nan;51781.00;5113539;28;20208;-82
2023/08/13 11:31:52;;;;;;;3.83;2.42;;;;;;;-145.69;nan;51786.94;5113290;28;20641;-81
2023/08/13 11:34:18;;;;;;;11.02;3.05;;;;;;;-145.69;nan;51790.91;5112728;28;20194;-82